Portada
METAR-TAF:

METAR-TAF

Aeroports :

Piacenza, Itàlia

latitud: 44-55N, longitud: 009-44E, altitud: 134 m

Observació

L'informe es va fer fa 6 hores i 16 minuts, a les 17:55 UTC
Vent 3 kt del Sud
Temperatura 30°C
Humitat 84%
Pressió 1015 hPa
Visibilitat 10 km o més
Escasses núvols a una alçada de 4000 ft

METAR: LIMS 181755Z 18003KT 9999 FEW040 30/27 Q1015 RMK FEW VIS MIN 9999 WIND THR30 18003KT BLU

Hora: 02:11 (00:11 UTC)

Pronòstic

L'informe es va fer fa 10 hores i 11 minuts, a les 14:00 UTC
Pronòstic vàlid del 18 a les 15 UTC al 18 a les 24 UTC
Vent 3 kt del Nord-Est
Visibilitat 10 km o més
sense núvols per sota de 1500 mi sense presència de cumulonimbus.

TAF: LIMS 181400Z 1815/1824 05003KT CAVOK

Observacions i pronòstics meteorològics de més de 4000 aeroports (METAR i TAF).

Les estacions disponibles són els punts grocs i vermells al mapa.

Posi el ratolí al punt desitjat per veure el nom de l'estació.

Feu clic per veure les observacions i els pronòstics meteorològics.

Per canviar el mapa: feu clic els botons verds amb una creu de color negre per apropar; al botó verd amb un guió per allunyar la imatge; o en les fletxes verdes per a mapes adjacents.


METAR-TAF: